Euskara    
Meteorología y climatología de Navarra
Datos de la estación - Meteo Navarra

Estación de Tafalla GN

Altitud 430 m.


Datos desde el 14/01/2021 hasta el 15/01/2021 en horario solar
Los datos son PROVISIONALES

Anterior Página 1 de 1 Siguiente Descargar: Formato para Excel 2000 o superior   Formato csv   Formato para OpenOffice Calc
Fecha Temperatura Humedad relativa Radiación global Insolación Precipitación Vel. viento 10 m Vel. viento 10 m Dir. viento 10 m
°C % W/m² s l/m² m/s km/h °
14/01/2021 0:00 6.4 78 0.0 0 0.0 4.9 17.6 315
14/01/2021 0:10 6.3 77 0.0 0 0.0 4.5 16.3 302
14/01/2021 0:20 5.9 78 0.0 0 0.0 5.0 17.8 289
14/01/2021 0:30 5.1 81 0.0 0 0.0 3.6 13.1 298
14/01/2021 0:40 5.3 80 0.0 0 0.0 4.5 16.1 297
14/01/2021 0:50 5.7 79 0.0 0 0.0 5.3 19.0 292
14/01/2021 1:00 6.0 78 0.0 0 0.0 4.7 16.8 297
14/01/2021 1:10 6.0 78 0.0 0 0.0 4.5 16.2 295
14/01/2021 1:20 5.8 78 0.0 0 0.0 4.6 16.7 296
14/01/2021 1:30 5.8 78 0.0 0 0.0 4.9 17.8 299
14/01/2021 1:40 6.3 76 0.0 0 0.0 5.2 18.6 306
14/01/2021 1:50 6.4 75 0.0 0 0.0 4.9 17.5 303
14/01/2021 2:00 5.8 77 0.0 0 0.0 5.1 18.4 303
14/01/2021 2:10 5.8 77 0.0 0 0.0 5.6 20.1 304
14/01/2021 2:20 6.0 76 0.0 0 0.0 5.5 19.7 303
14/01/2021 2:30 5.9 77 0.0 0 0.0 5.6 20.3 307
14/01/2021 2:40 6.1 76 0.0 0 0.0 5.2 18.5 306
14/01/2021 2:50 6.2 76 0.0 0 0.0 5.2 18.8 302
14/01/2021 3:00 6.3 76 0.0 0 0.0 4.9 17.6 303
14/01/2021 3:10 5.8 77 0.0 0 0.0 4.5 16.2 301
14/01/2021 3:20 6.2 76 0.0 0 0.0 4.5 16.1 313
14/01/2021 3:30 6.5 75 0.0 0 0.0 3.9 14.0 314
14/01/2021 3:40 6.5 75 0.0 0 0.0 5.6 20.2 317
14/01/2021 3:50 6.5 75 0.0 0 0.0 5.6 20.1 318
14/01/2021 4:00 6.5 76 0.0 0 0.0 5.3 19.0 321
14/01/2021 4:10 6.4 76 0.0 0 0.0 6.2 22.4 317
14/01/2021 4:20 6.5 76 0.0 0 0.0 6.5 23.5 317
14/01/2021 4:30 6.5 76 0.0 0 0.0 6.8 24.6 317
14/01/2021 4:40 6.5 76 0.0 0 0.0 6.1 22.1 311
14/01/2021 4:50 6.4 76 0.0 0 0.0 6.7 24.0 313
14/01/2021 5:00 6.5 75 0.0 0 0.0 6.4 23.0 316
14/01/2021 5:10 6.6 74 0.0 0 0.0 5.9 21.4 308
14/01/2021 5:20 6.5 74 0.0 0 0.0 6.0 21.6 309
14/01/2021 5:30 6.4 75 0.0 0 0.0 5.2 18.5 308
14/01/2021 5:40 6.4 75 0.0 0 0.0 5.6 20.1 312
14/01/2021 5:50 6.3 75 0.0 0 0.0 5.0 18.1 310
14/01/2021 6:00 6.1 76 0.0 0 0.0 4.7 17.0 313
14/01/2021 6:10 6.0 77 0.0 0 0.0 5.0 18.1 305
14/01/2021 6:20 5.8 78 0.0 0 0.0 5.2 18.5 304
14/01/2021 6:30 6.1 77 0.0 0 0.0 5.3 19.0 306
14/01/2021 6:40 6.3 75 0.0 0 0.0 5.5 19.7 317
14/01/2021 6:50 6.3 75 0.0 0 0.0 5.3 19.1 320
14/01/2021 7:00 6.4 74 0.0 0 0.0 5.8 20.7 319
14/01/2021 7:10 6.4 74 0.0 0 0.0 5.7 20.6 318
14/01/2021 7:20 6.4 74 0.0 0 0.0 6.6 23.6 320
14/01/2021 7:30 6.4 74 0.0 0 0.0 6.4 23.1 327
14/01/2021 7:40 6.4 73 3.0 0 0.0 6.1 21.8 324
14/01/2021 7:50 6.3 75 30.1 330 0.0 6.5 23.4 321
14/01/2021 8:00 6.4 75 36.0 600 0.0 5.1 18.5 323
14/01/2021 8:10 6.5 74 48.1 600 0.0 5.7 20.5 325
14/01/2021 8:20 6.6 73 49.1 288 0.0 4.4 16.0 312
14/01/2021 8:30 6.6 73 28.5 0 0.0 4.2 15.2 309
14/01/2021 8:40 6.6 73 49.9 0 0.0 4.1 14.9 308
14/01/2021 8:50 6.6 73 71.8 4 0.0 5.3 19.2 315
14/01/2021 9:00 6.8 73 121.0 286 0.0 5.5 19.8 324
14/01/2021 9:10 6.9 72 106.0 80 0.0 6.5 23.4 326
14/01/2021 9:20 6.9 72 110.7 114 0.0 6.4 22.9 326
14/01/2021 9:30 6.9 72 100.8 0 0.0 7.1 25.5 325
14/01/2021 9:40 6.9 72 119.7 0 0.0 6.3 22.6 322
14/01/2021 9:50 6.9 72 125.7 0 0.0 6.2 22.4 325
14/01/2021 10:00 6.9 72 173.4 206 0.0 6.9 24.8 324
14/01/2021 10:10 7.2 71 240.8 462 0.0 7.4 26.6 325
14/01/2021 10:20 7.3 69 336.2 570 0.0 7.7 27.8 328
14/01/2021 10:30 7.3 70 286.3 414 0.0 7.6 27.4 325
14/01/2021 10:40 7.5 68 420.9 510 0.0 7.1 25.5 334
14/01/2021 10:50 7.5 67 297.8 294 0.0 7.0 25.0 340
14/01/2021 11:00 7.7 67 465.8 600 0.0 7.2 26.0 333
14/01/2021 11:10 7.8 67 460.2 600 0.0 6.7 24.3 332
14/01/2021 11:20 7.9 67 477.0 600 0.0 7.0 25.3 332
14/01/2021 11:30 8.0 66 482.0 600 0.0 6.7 24.0 340
14/01/2021 11:40 8.1 65 512.0 584 0.0 6.6 23.7 339
14/01/2021 11:50 8.2 65 538.8 600 0.0 5.7 20.6 343
14/01/2021 12:00 8.2 65 463.6 578 0.0 4.7 16.9 351
14/01/2021 12:10 7.8 65 202.0 108 0.0 5.8 20.7 342
14/01/2021 12:20 8.2 65 417.1 490 0.0 5.1 18.4 342
14/01/2021 12:30 8.7 64 523.4 600 0.0 5.6 20.2 342
14/01/2021 12:40 8.6 63 467.3 548 0.0 6.1 22.1 339
14/01/2021 12:50 8.7 63 522.6 600 0.0 6.2 22.3 338
14/01/2021 13:00 9.1 62 555.9 600 0.0 4.9 17.5 340
14/01/2021 13:10 8.9 62 379.7 484 0.0 4.2 15.3 345
14/01/2021 13:20 8.9 63 446.4 570 0.0 4.0 14.5 342
14/01/2021 13:30 9.0 63 444.3 600 0.0 5.2 18.7 333
14/01/2021 13:40 9.0 63 414.9 600 0.0 5.1 18.4 332
14/01/2021 13:50 9.0 63 386.8 560 0.0 5.2 18.7 338
14/01/2021 14:00 9.0 62 399.0 600 0.0 4.8 17.2 342
14/01/2021 14:10 9.3 61 393.7 600 0.0 4.9 17.6 346
14/01/2021 14:20 9.4 62 340.7 474 0.0 6.4 22.9 333
14/01/2021 14:30 9.2 63 288.4 432 0.0 5.9 21.1 337
14/01/2021 14:40 8.9 64 300.1 600 0.0 5.3 19.0 343
14/01/2021 14:50 9.0 64 235.6 332 0.0 4.3 15.4 342
14/01/2021 15:00 8.9 65 243.3 570 0.0 5.1 18.3 349
14/01/2021 15:10 9.2 65 246.0 564 0.0 4.0 14.4 349
14/01/2021 15:20 8.9 65 208.4 544 0.0 4.3 15.4 340
14/01/2021 15:30 9.0 66 156.7 332 0.0 3.4 12.1 359
14/01/2021 15:40 8.8 67 136.8 348 0.0 3.3 11.7 346
14/01/2021 15:50 8.7 68 88.3 176 0.0 3.5 12.6 341
14/01/2021 16:00 8.6 69 47.1 6 0.0 3.6 12.8 329
14/01/2021 16:10 8.5 70 38.7 0 0.0 3.8 13.6 321
14/01/2021 16:20 8.5 70 33.7 0 0.0 4.0 14.3 316
14/01/2021 16:30 8.4 71 30.5 0 0.0 3.5 12.6 316
14/01/2021 16:40 8.3 72 21.0 0 0.0 4.0 14.5 326
14/01/2021 16:50 8.2 72 0.0 0 0.0 4.0 14.4 327
14/01/2021 17:00 8.0 73 0.0 0 0.0 3.6 12.8 326
14/01/2021 17:10 7.8 74 0.0 0 0.0 3.5 12.7 321
14/01/2021 17:20 7.5 76 0.0 0 0.0 2.6 9.3 315
14/01/2021 17:30 7.4 77 0.0 0 0.0 2.5 9.0 310
14/01/2021 17:40 7.1 78 0.0 0 0.0 3.4 12.3 300
14/01/2021 17:50 7.0 79 0.0 0 0.0 3.4 12.2 306
14/01/2021 18:00 6.9 80 0.0 0 0.0 3.6 12.8 324
14/01/2021 18:10 6.7 81 0.0 0 0.0 3.1 11.3 322
14/01/2021 18:20 6.7 81 0.0 0 0.0 2.4 8.5 311
14/01/2021 18:30 6.7 82 0.0 0 0.0 2.2 8.1 310
14/01/2021 18:40 6.5 84 0.0 0 0.0 2.5 8.9 309
14/01/2021 18:50 6.5 84 0.0 0 0.0 2.6 9.5 306
14/01/2021 19:00 6.4 86 0.0 0 0.0 2.6 9.3 308
14/01/2021 19:10 6.3 87 0.0 0 0.0 2.3 8.3 314
14/01/2021 19:20 6.2 87 0.0 0 0.0 2.1 7.7 316
14/01/2021 19:30 6.0 88 0.0 0 0.0 2.0 7.3 314
14/01/2021 19:40 6.1 89 0.0 0 0.0 2.5 8.8 318
14/01/2021 19:50 6.0 90 0.0 0 0.0 2.4 8.8 320
14/01/2021 20:00 6.0 90 0.0 0 0.0 2.8 10.2 309
14/01/2021 20:10 6.0 91 0.0 0 0.0 2.2 7.8 331
14/01/2021 20:20 5.9 91 0.0 0 0.0 2.3 8.1 330
14/01/2021 20:30 6.0 91 0.0 0 0.0 2.3 8.1 322
14/01/2021 20:40 6.0 92 0.0 0 0.0 3.0 10.8 316
14/01/2021 20:50 6.3 90 0.0 0 0.0 3.6 13.1 309
14/01/2021 21:00 6.4 89 0.0 0 0.0 4.4 15.9 308
14/01/2021 21:10 6.5 89 0.0 0 0.0 3.8 13.5 313
14/01/2021 21:20 6.3 90 0.0 0 0.0 3.5 12.6 314
14/01/2021 21:30 6.4 90 0.0 0 0.0 3.3 11.9 314
14/01/2021 21:40 6.3 90 0.0 0 0.0 3.2 11.5 314
14/01/2021 21:50 6.5 88 0.0 0 0.0 3.6 12.9 310
14/01/2021 22:00 6.6 87 0.0 0 0.0 4.2 15.2 306
14/01/2021 22:10 6.8 85 0.0 0 0.0 4.4 15.7 305
14/01/2021 22:20 6.8 85 0.0 0 0.0 4.4 15.8 304
14/01/2021 22:30 6.9 84 0.0 0 0.0 3.6 13.0 308
14/01/2021 22:40 7.0 84 0.0 0 0.0 4.5 16.3 305
14/01/2021 22:50 6.8 84 0.0 0 0.0 3.1 11.3 312
14/01/2021 23:00 6.8 85 0.0 0 0.0 3.5 12.5 310
14/01/2021 23:10 6.7 85 0.0 0 0.0 3.1 11.2 318
14/01/2021 23:20 6.6 84 0.0 0 0.0 2.9 10.4 320
14/01/2021 23:30 6.4 84 0.0 0 0.0 2.7 9.5 317
14/01/2021 23:40 6.2 84 0.0 0 0.0 2.7 9.8 319
14/01/2021 23:50 6.1 84 0.0 0 0.0 2.5 9.0 322
Anterior Página 1 de 1 Siguiente

NOTA: Tipo de datos según el color:
   - Valores diarios o 10 minutos correctos
   - Valores diarios calculados a partir de un número de datos 10 minutos menor que 144 y mayor que 120, o de un número de datos semihorarios menor que 48 y mayor que 40 (caso de las estaciones de INTIA Y Ministerio)
   - Valores diez minutos estimados


Contacto        Enlaces        Aviso legal